Time;durP1;ratioP1;P1;durP2;ratioP2;P2;SDS_P1;SDS_P2;PMS_P1;PMS_P2;Temp;Humidity;BMP_temperature;BMP_pressure;BME280_temperature;BME280_humidity;BME280_pressure;Samples;Min_cycle;Max_cycle;Signal;HPM_P1;HPM_P2
2023/08/03 00:01:03;;;;;;;3.23;1.33;;;17.20;99.90;;;;;;5019444;28;20467;-82
2023/08/03 00:03:30;;;;;;;5.93;1.10;;;17.10;99.90;;;;;;5018759;28;20471;-81
2023/08/03 00:05:57;;;;;;;4.37;1.30;;;17.10;99.90;;;;;;5013391;28;21186;-83
2023/08/03 00:08:24;;;;;;;3.73;1.30;;;17.10;99.90;;;;;;5014143;28;20449;-83
2023/08/03 00:10:51;;;;;;;7.70;1.97;;;17.00;99.90;;;;;;5013281;28;20456;-84
2023/08/03 00:13:17;;;;;;;7.37;2.03;;;16.90;99.90;;;;;;5013938;28;20465;-84
2023/08/03 00:15:45;;;;;;;5.67;1.47;;;16.90;99.90;;;;;;5014211;28;20462;-82
2023/08/03 00:18:12;;;;;;;3.83;1.40;;;16.80;99.90;;;;;;5015109;28;20445;-81
2023/08/03 00:20:39;;;;;;;2.63;1.20;;;16.80;99.90;;;;;;5013903;28;20980;-82
2023/08/03 00:23:06;;;;;;;4.77;1.50;;;16.70;99.90;;;;;;5013635;28;20456;-82
2023/08/03 00:25:32;;;;;;;5.00;1.50;;;16.70;99.90;;;;;;5013629;28;20456;-84
2023/08/03 00:27:59;;;;;;;3.40;1.10;;;16.70;99.90;;;;;;5014343;28;20990;-82
2023/08/03 00:30:26;;;;;;;5.63;1.57;;;16.60;99.90;;;;;;5014973;28;20476;-80
2023/08/03 00:32:54;;;;;;;7.10;1.47;;;16.60;99.90;;;;;;5014300;28;20557;-82
2023/08/03 00:35:21;;;;;;;2.93;1.50;;;16.60;99.90;;;;;;5015076;28;20471;-82
2023/08/03 00:37:48;;;;;;;2.73;1.30;;;16.60;99.90;;;;;;5014429;28;20457;-82
2023/08/03 00:40:15;;;;;;;4.00;1.33;;;16.60;99.90;;;;;;5014884;28;21038;-84
2023/08/03 00:42:42;;;;;;;2.77;1.37;;;16.50;99.90;;;;;;5014316;28;20473;-85
2023/08/03 00:45:11;;;;;;;4.70;1.50;;;16.60;99.90;;;;;;5014309;28;20447;-85
2023/08/03 00:47:38;;;;;;;2.40;1.30;;;16.60;99.90;;;;;;5015963;28;20452;-84
2023/08/03 00:50:08;;;;;;;2.27;1.60;;;16.60;99.90;;;;;;5015324;28;20454;-83
2023/08/03 00:52:35;;;;;;;5.10;1.40;;;16.50;99.90;;;;;;5016187;28;20871;-82
2023/08/03 00:55:02;;;;;;;3.70;2.07;;;16.50;99.90;;;;;;5017668;28;20485;-84
2023/08/03 00:57:29;;;;;;;2.20;1.30;;;16.50;99.90;;;;;;5017426;28;20456;-82
2023/08/03 00:59:56;;;;;;;5.43;1.47;;;16.50;99.90;;;;;;5019238;28;20499;-81
2023/08/03 01:02:23;;;;;;;5.30;1.40;;;16.40;99.90;;;;;;5023130;28;20470;-83
2023/08/03 01:04:50;;;;;;;3.70;1.40;;;16.50;99.90;;;;;;5019120;28;20455;-83
2023/08/03 01:07:21;;;;;;;2.50;1.30;;;16.50;99.90;;;;;;5018353;28;20460;-82
2023/08/03 01:09:48;;;;;;;3.47;1.30;;;16.50;99.90;;;;;;5018141;28;20460;-84
2023/08/03 01:12:16;;;;;;;3.53;1.07;;;16.40;99.90;;;;;;5018248;28;20580;-81
2023/08/03 01:14:43;;;;;;;2.73;1.47;;;16.40;99.90;;;;;;5018064;28;20457;-83
2023/08/03 01:17:10;;;;;;;3.77;1.17;;;16.40;99.90;;;;;;5018826;28;20455;-82
2023/08/03 01:19:37;;;;;;;5.20;1.30;;;16.40;99.90;;;;;;5018299;28;20450;-83
2023/08/03 01:22:07;;;;;;;2.90;1.57;;;16.40;99.90;;;;;;5018274;28;20556;-82
2023/08/03 01:24:35;;;;;;;4.80;1.60;;;16.40;99.90;;;;;;5018734;28;20895;-82
2023/08/03 01:27:02;;;;;;;1.93;0.90;;;16.40;99.90;;;;;;5018588;28;20814;-82
2023/08/03 01:29:29;;;;;;;2.67;1.40;;;16.40;99.90;;;;;;5020216;28;20456;-79
2023/08/03 01:31:58;;;;;;;3.80;1.20;;;16.40;99.90;;;;;;5019761;28;20873;-84
2023/08/03 01:34:25;;;;;;;3.30;1.47;;;16.40;99.90;;;;;;5020053;28;20485;-85
2023/08/03 01:36:53;;;;;;;1.70;1.10;;;16.40;99.90;;;;;;5018557;28;20471;-84
2023/08/03 01:39:21;;;;;;;2.13;1.10;;;16.50;99.90;;;;;;5020374;28;20814;-86
2023/08/03 01:41:49;;;;;;;4.70;1.43;;;16.40;99.90;;;;;;5019150;28;20852;-84
2023/08/03 01:44:26;;;;;;;2.13;1.20;;;16.40;99.90;;;;;;5020218;28;20452;-84
2023/08/03 01:46:54;;;;;;;4.60;1.30;;;16.40;99.90;;;;;;5020365;28;20449;-84
2023/08/03 01:49:22;;;;;;;3.60;1.67;;;16.40;99.90;;;;;;5020950;28;20473;-84
2023/08/03 01:51:50;;;;;;;2.30;1.10;;;16.40;99.90;;;;;;5021380;28;20504;-84
2023/08/03 01:54:17;;;;;;;3.93;1.20;;;16.40;99.90;;;;;;5026928;28;20537;-81
2023/08/03 01:56:44;;;;;;;3.77;1.50;;;16.40;99.90;;;;;;5035033;28;20540;-81
2023/08/03 01:59:12;;;;;;;4.07;1.97;;;16.30;99.90;;;;;;5031186;28;20513;-82
2023/08/03 02:01:40;;;;;;;3.40;1.67;;;16.30;99.90;;;;;;5018237;28;20507;-83
2023/08/03 02:04:07;;;;;;;3.33;1.80;;;16.40;99.90;;;;;;5015183;28;20449;-82
2023/08/03 02:06:34;;;;;;;2.97;1.50;;;16.40;99.90;;;;;;5014617;28;20457;-82
2023/08/03 02:09:01;;;;;;;2.80;1.53;;;16.40;99.90;;;;;;5015001;28;20551;-83
2023/08/03 02:11:28;;;;;;;4.20;2.10;;;16.40;99.90;;;;;;5014522;28;20499;-83
2023/08/03 02:13:54;;;;;;;3.20;1.80;;;16.40;99.90;;;;;;5015571;28;20460;-82
2023/08/03 02:16:23;;;;;;;5.90;2.07;;;16.40;99.90;;;;;;5014446;28;20458;-83
2023/08/03 02:18:49;;;;;;;4.23;1.90;;;16.40;99.90;;;;;;5014917;28;20448;-82
2023/08/03 02:21:16;;;;;;;10.00;1.90;;;16.40;99.90;;;;;;5014887;28;20475;-82
2023/08/03 02:23:43;;;;;;;4.43;2.53;;;16.40;99.90;;;;;;5014272;28;20454;-83
2023/08/03 02:26:10;;;;;;;5.20;3.43;;;16.40;99.90;;;;;;5014534;28;20455;-81
2023/08/03 02:28:36;;;;;;;5.07;1.70;;;16.50;99.90;;;;;;5014983;28;20456;-82
2023/08/03 02:31:03;;;;;;;3.63;1.60;;;16.50;99.90;;;;;;5014247;28;20476;-83
2023/08/03 02:33:31;;;;;;;3.93;2.27;;;16.50;99.90;;;;;;5014560;28;20481;-83
2023/08/03 02:35:58;;;;;;;5.57;2.40;;;16.50;99.90;;;;;;5014037;28;20960;-82
2023/08/03 02:38:25;;;;;;;2.73;2.00;;;16.50;99.90;;;;;;5014434;28;20958;-83
2023/08/03 02:40:52;;;;;;;6.10;1.93;;;16.50;99.90;;;;;;5014219;28;20522;-81
2023/08/03 02:43:19;;;;;;;2.50;1.90;;;16.40;99.90;;;;;;5014969;28;20457;-82
2023/08/03 02:45:46;;;;;;;4.23;1.87;;;16.40;99.90;;;;;;5014133;28;20457;-83
2023/08/03 02:48:12;;;;;;;5.97;1.57;;;16.40;99.90;;;;;;5014301;28;20459;-82
2023/08/03 02:50:41;;;;;;;5.00;2.50;;;16.40;99.90;;;;;;5014840;28;20543;-82
2023/08/03 02:53:07;;;;;;;8.83;2.77;;;16.40;99.90;;;;;;5015363;28;20485;-82
2023/08/03 02:55:34;;;;;;;3.53;1.90;;;16.40;99.90;;;;;;5014697;28;20435;-83
2023/08/03 02:58:01;;;;;;;2.90;2.20;;;16.40;99.90;;;;;;5014828;28;20846;-82
2023/08/03 03:00:28;;;;;;;5.50;2.30;;;16.40;99.90;;;;;;5014695;28;20829;-83
2023/08/03 03:02:54;;;;;;;4.73;1.83;;;16.40;99.90;;;;;;5014005;28;20471;-81
2023/08/03 03:05:21;;;;;;;5.17;2.00;;;16.40;99.90;;;;;;5014254;28;20452;-81
2023/08/03 03:07:49;;;;;;;3.90;2.00;;;16.40;99.90;;;;;;5015429;28;20463;-82
2023/08/03 03:10:16;;;;;;;6.00;1.80;;;16.40;99.90;;;;;;5014350;28;20451;-83
2023/08/03 03:12:43;;;;;;;2.70;1.87;;;16.50;99.90;;;;;;5013274;28;21047;-82
2023/08/03 03:15:10;;;;;;;7.17;2.10;;;16.50;99.90;;;;;;5014500;28;20448;-82
2023/08/03 03:17:38;;;;;;;5.00;1.87;;;16.50;99.90;;;;;;5013736;28;20460;-81
2023/08/03 03:20:06;;;;;;;7.00;1.90;;;16.50;99.90;;;;;;5011804;28;20588;-81
2023/08/03 03:22:35;;;;;;;5.10;2.20;;;16.50;99.90;;;;;;5013112;28;20532;-81
2023/08/03 03:25:03;;;;;;;6.50;2.27;;;16.50;99.90;;;;;;5013475;28;20458;-83
2023/08/03 03:27:30;;;;;;;4.00;1.83;;;16.60;99.90;;;;;;5013750;28;20969;-82
2023/08/03 03:29:56;;;;;;;7.23;2.20;;;16.60;99.90;;;;;;5014214;28;20973;-82
2023/08/03 03:32:23;;;;;;;6.03;2.40;;;16.60;99.90;;;;;;5028221;28;21074;-82
2023/08/03 03:34:50;;;;;;;5.63;1.80;;;16.60;99.90;;;;;;5013720;28;20982;-83
2023/08/03 03:37:17;;;;;;;6.33;2.20;;;16.60;99.90;;;;;;5013244;28;20514;-84
2023/08/03 03:39:43;;;;;;;3.10;1.50;;;16.60;99.90;;;;;;5013566;28;20460;-82
2023/08/03 03:42:11;;;;;;;7.07;1.43;;;16.50;99.90;;;;;;5014128;28;20561;-83
2023/08/03 03:44:38;;;;;;;3.47;1.70;;;16.60;99.90;;;;;;5014082;28;20202;-83
2023/08/03 03:47:05;;;;;;;5.03;1.80;;;16.60;99.90;;;;;;5014096;28;20452;-83
2023/08/03 03:49:32;;;;;;;2.70;1.70;;;16.60;99.90;;;;;;5014240;28;20839;-82
2023/08/03 03:51:58;;;;;;;1.90;1.20;;;16.60;99.90;;;;;;5013977;28;21108;-83
2023/08/03 03:54:25;;;;;;;2.53;1.20;;;16.70;99.90;;;;;;5013893;28;20447;-83
2023/08/03 03:56:52;;;;;;;3.70;1.20;;;16.70;99.90;;;;;;5013575;28;20469;-82
2023/08/03 03:59:21;;;;;;;2.10;1.17;;;16.70;99.90;;;;;;5014320;28;20446;-82
2023/08/03 04:01:47;;;;;;;3.17;1.67;;;16.70;99.90;;;;;;5013185;28;20477;-82
2023/08/03 04:04:14;;;;;;;5.13;1.50;;;16.70;99.90;;;;;;5014267;28;20445;-84
2023/08/03 04:06:41;;;;;;;6.73;1.70;;;16.70;99.90;;;;;;5013146;28;20454;-84
2023/08/03 04:09:08;;;;;;;4.63;1.43;;;16.70;99.90;;;;;;5013692;28;20470;-83
2023/08/03 04:11:37;;;;;;;5.00;1.73;;;16.80;99.90;;;;;;5014260;28;20473;-85
2023/08/03 04:14:04;;;;;;;10.33;2.23;;;16.80;99.90;;;;;;5014624;28;20521;-83
2023/08/03 04:16:32;;;;;;;3.63;2.17;;;16.80;99.90;;;;;;5013976;28;20461;-83
2023/08/03 04:18:58;;;;;;;3.07;1.33;;;16.80;99.90;;;;;;5014717;28;20446;-84
2023/08/03 04:21:25;;;;;;;2.37;1.20;;;16.80;99.90;;;;;;5014867;28;20479;-82
2023/08/03 04:23:54;;;;;;;2.43;1.10;;;16.80;99.90;;;;;;5016316;28;21020;-84
2023/08/03 04:26:21;;;;;;;2.63;1.30;;;16.80;99.90;;;;;;5017018;28;20448;-85
2023/08/03 04:28:47;;;;;;;2.97;1.40;;;16.90;99.90;;;;;;5016959;28;20466;-84
2023/08/03 04:31:14;;;;;;;3.60;1.47;;;17.00;99.90;;;;;;5015163;28;20491;-83
2023/08/03 04:33:43;;;;;;;2.73;1.20;;;17.00;99.90;;;;;;5045186;22;20504;-80
2023/08/03 04:36:09;;;;;;;2.03;1.20;;;17.00;99.90;;;;;;5039010;28;20526;-80
2023/08/03 04:38:36;;;;;;;5.63;1.53;;;17.00;99.90;;;;;;5038100;28;20824;-79
2023/08/03 04:41:03;;;;;;;3.23;1.17;;;17.00;99.90;;;;;;5037783;28;20475;-81
2023/08/03 04:43:30;;;;;;;5.47;1.40;;;17.10;99.90;;;;;;5040096;28;20459;-83
2023/08/03 04:45:59;;;;;;;3.53;1.30;;;17.10;99.90;;;;;;5037525;28;20483;-80
2023/08/03 04:48:26;;;;;;;2.23;1.10;;;17.10;99.90;;;;;;5036328;28;20466;-80
2023/08/03 04:50:54;;;;;;;5.57;1.60;;;17.10;99.90;;;;;;5036366;28;20910;-80
2023/08/03 04:53:21;;;;;;;2.97;0.90;;;17.10;99.90;;;;;;5036067;28;20575;-84
2023/08/03 04:55:48;;;;;;;4.40;1.40;;;17.10;99.90;;;;;;5035224;28;20613;-80
2023/08/03 04:58:16;;;;;;;3.97;1.50;;;17.20;99.90;;;;;;5035888;28;20467;-81
2023/08/03 05:00:43;;;;;;;3.00;1.57;;;17.20;99.90;;;;;;5037028;28;20836;-81
2023/08/03 05:03:10;;;;;;;4.10;1.20;;;17.20;99.90;;;;;;5020873;28;20696;-83
2023/08/03 05:05:36;;;;;;;2.20;1.03;;;17.20;99.90;;;;;;5036803;28;20463;-82
2023/08/03 05:08:05;;;;;;;1.73;1.10;;;17.10;99.90;;;;;;5026512;28;20469;-81
2023/08/03 05:10:31;;;;;;;1.77;0.97;;;17.20;99.90;;;;;;5032659;28;20448;-82
2023/08/03 05:12:58;;;;;;;8.30;1.60;;;17.20;99.90;;;;;;5035963;28;20489;-82
2023/08/03 05:15:25;;;;;;;3.00;1.43;;;17.20;99.90;;;;;;5035230;28;20469;-83
2023/08/03 05:17:52;;;;;;;2.87;1.60;;;17.10;99.90;;;;;;5040816;28;20456;-83
2023/08/03 05:20:19;;;;;;;5.83;1.40;;;17.10;99.90;;;;;;5044463;28;20455;-84
2023/08/03 05:22:45;;;;;;;2.90;1.07;;;17.00;99.90;;;;;;5039387;28;20473;-83
2023/08/03 05:25:15;;;;;;;4.50;1.70;;;17.00;99.90;;;;;;5033311;28;20466;-83
2023/08/03 05:27:41;;;;;;;2.90;1.33;;;16.90;99.90;;;;;;5029989;28;20459;-82
2023/08/03 05:30:09;;;;;;;3.50;1.67;;;16.80;99.90;;;;;;5035951;28;20485;-83
2023/08/03 05:32:36;;;;;;;5.33;2.50;;;16.70;99.90;;;;;;5043596;28;20869;-82
2023/08/03 05:35:03;;;;;;;3.10;1.40;;;16.60;99.90;;;;;;5034691;28;20457;-81
2023/08/03 05:37:30;;;;;;;2.73;1.40;;;16.60;99.90;;;;;;5034265;28;20530;-84
2023/08/03 05:39:57;;;;;;;3.10;1.63;;;16.60;99.90;;;;;;5038054;28;20459;-83
2023/08/03 05:42:25;;;;;;;2.67;1.40;;;16.50;99.90;;;;;;5032196;28;20545;-85
2023/08/03 05:44:53;;;;;;;5.10;1.80;;;16.50;99.90;;;;;;5036320;28;20498;-82
2023/08/03 05:47:19;;;;;;;3.90;1.63;;;16.50;99.90;;;;;;5033378;28;20454;-83
2023/08/03 05:49:46;;;;;;;3.03;1.63;;;16.50;99.90;;;;;;5030004;28;20546;-82
2023/08/03 05:52:15;;;;;;;3.73;1.90;;;16.40;99.90;;;;;;5033489;28;20469;-84
2023/08/03 05:54:42;;;;;;;2.33;1.37;;;16.50;99.90;;;;;;5036198;28;20593;-81
2023/08/03 05:57:13;;;;;;;2.27;1.40;;;16.50;99.90;;;;;;5034175;28;20543;-82
2023/08/03 05:59:41;;;;;;;2.40;1.77;;;16.60;99.90;;;;;;5033230;28;20485;-83
2023/08/03 06:02:32;;;;;;;4.90;1.37;;;16.50;99.90;;;;;;5037960;28;20480;-84
2023/08/03 06:04:59;;;;;;;5.23;1.47;;;16.50;99.90;;;;;;5051638;28;20474;-87
2023/08/03 06:07:26;;;;;;;4.17;2.17;;;16.50;99.90;;;;;;5053140;28;20443;-83
2023/08/03 06:09:52;;;;;;;6.97;1.47;;;16.50;99.90;;;;;;5057311;28;20470;-84
2023/08/03 06:12:20;;;;;;;2.10;1.30;;;16.50;99.90;;;;;;5041839;28;20552;-85
2023/08/03 06:14:48;;;;;;;4.43;1.57;;;16.50;99.90;;;;;;5058644;28;20465;-84
2023/08/03 06:17:15;;;;;;;2.77;1.17;;;16.60;99.90;;;;;;5055568;28;20444;-83
2023/08/03 06:19:41;;;;;;;2.50;1.10;;;16.70;99.90;;;;;;5040374;28;20455;-82
2023/08/03 06:22:26;;;;;;;2.87;1.30;;;16.60;99.90;;;;;;5036364;28;20476;-83
2023/08/03 06:24:55;;;;;;;3.07;1.30;;;16.60;99.90;;;;;;5025295;28;20450;-80
2023/08/03 06:27:22;;;;;;;6.80;1.30;;;16.60;99.90;;;;;;5031084;28;20464;-82
2023/08/03 06:29:50;;;;;;;2.17;1.20;;;16.60;99.90;;;;;;5027329;28;20893;-85
2023/08/03 06:32:24;;;;;;;1.70;1.20;;;16.60;99.90;;;;;;5033899;28;20495;-83
2023/08/03 06:34:50;;;;;;;2.50;1.13;;;16.60;99.90;;;;;;5040094;28;20470;-83
2023/08/03 06:37:17;;;;;;;2.90;1.67;;;16.60;99.90;;;;;;5037785;28;21383;-81
2023/08/03 06:39:44;;;;;;;9.47;2.13;;;16.60;99.90;;;;;;5036523;28;20458;-82
2023/08/03 06:42:11;;;;;;;3.13;1.37;;;16.50;99.90;;;;;;5034076;28;20474;-83
2023/08/03 06:44:38;;;;;;;2.47;1.10;;;16.40;99.90;;;;;;5038313;28;20452;-83
2023/08/03 06:47:06;;;;;;;2.33;1.20;;;16.40;99.90;;;;;;5037638;28;20552;-83
2023/08/03 06:49:33;;;;;;;6.13;1.47;;;16.40;99.90;;;;;;5038351;28;20535;-84
2023/08/03 06:52:00;;;;;;;2.00;1.10;;;16.40;99.90;;;;;;5039273;28;20459;-83
2023/08/03 06:54:27;;;;;;;2.80;1.20;;;16.50;99.90;;;;;;5039788;28;20497;-84
2023/08/03 06:56:54;;;;;;;3.97;1.20;;;16.50;99.90;;;;;;5043092;28;20451;-83
2023/08/03 06:59:21;;;;;;;3.40;1.50;;;16.50;99.90;;;;;;5039162;28;20469;-83
2023/08/03 07:01:49;;;;;;;1.70;1.10;;;16.50;99.90;;;;;;5039023;28;20456;-84
2023/08/03 07:04:17;;;;;;;3.63;1.53;;;16.40;99.90;;;;;;5039006;28;20485;-83
2023/08/03 07:06:46;;;;;;;3.30;1.40;;;16.40;99.90;;;;;;5038981;28;20462;-82
2023/08/03 07:09:13;;;;;;;1.93;1.40;;;16.50;99.90;;;;;;5039539;28;20469;-85
2023/08/03 07:11:40;;;;;;;2.30;1.20;;;16.50;99.90;;;;;;5039012;28;20461;-83
2023/08/03 07:14:08;;;;;;;4.20;1.90;;;16.40;99.90;;;;;;5038102;28;21025;-82
2023/08/03 07:16:36;;;;;;;2.80;1.50;;;16.50;99.90;;;;;;5039553;28;20462;-84
2023/08/03 07:19:06;;;;;;;4.20;1.80;;;16.50;99.90;;;;;;5039320;28;20462;-84
2023/08/03 07:21:34;;;;;;;2.67;1.40;;;16.50;99.90;;;;;;5040972;28;20449;-81
2023/08/03 07:24:01;;;;;;;2.73;1.93;;;16.60;99.90;;;;;;5041354;28;20900;-83
2023/08/03 07:26:28;;;;;;;2.00;1.23;;;16.50;99.90;;;;;;5041877;28;20456;-82
2023/08/03 07:28:55;;;;;;;2.47;1.60;;;16.50;99.90;;;;;;5043040;28;20472;-84
2023/08/03 07:31:22;;;;;;;2.27;1.57;;;16.60;99.90;;;;;;5038874;28;20481;-84
2023/08/03 07:33:49;;;;;;;4.13;1.93;;;16.50;99.90;;;;;;5022207;28;20509;-83
2023/08/03 07:36:17;;;;;;;3.73;1.53;;;16.60;99.90;;;;;;5019479;28;20907;-83
2023/08/03 07:38:45;;;;;;;2.60;1.77;;;16.70;99.90;;;;;;5027245;28;20460;-83
2023/08/03 07:41:12;;;;;;;4.60;1.80;;;16.70;99.90;;;;;;5016655;28;20454;-83
2023/08/03 07:43:39;;;;;;;2.93;1.60;;;16.70;99.90;;;;;;5034843;28;20549;-84
2023/08/03 07:46:06;;;;;;;2.43;1.70;;;16.80;99.90;;;;;;5037450;28;20976;-81
2023/08/03 07:48:33;;;;;;;3.37;1.70;;;16.90;99.90;;;;;;5036032;28;20463;-84
2023/08/03 07:50:59;;;;;;;2.43;1.73;;;16.90;99.90;;;;;;5036537;28;21074;-83
2023/08/03 07:53:26;;;;;;;2.23;1.73;;;16.90;99.90;;;;;;5024698;28;20547;-83
2023/08/03 07:55:54;;;;;;;3.30;1.50;;;17.00;99.90;;;;;;5020073;28;20530;-85
2023/08/03 07:58:21;;;;;;;4.27;1.80;;;17.00;99.90;;;;;;5038533;28;20487;-85
2023/08/03 08:00:48;;;;;;;3.43;1.73;;;17.00;99.90;;;;;;5034074;28;20452;-83
2023/08/03 08:03:15;;;;;;;4.23;1.70;;;16.90;99.90;;;;;;5036912;28;20539;-82
2023/08/03 08:05:42;;;;;;;3.73;1.87;;;16.80;99.90;;;;;;5020206;28;20475;-83
2023/08/03 08:08:08;;;;;;;2.83;1.60;;;16.80;99.90;;;;;;5020917;28;20564;-83
2023/08/03 08:10:35;;;;;;;2.63;1.87;;;16.80;99.90;;;;;;5037076;28;20451;-81
2023/08/03 08:13:03;;;;;;;3.70;2.20;;;16.90;99.90;;;;;;5035841;28;20855;-82
2023/08/03 08:15:30;;;;;;;6.03;2.80;;;17.00;99.90;;;;;;5021433;28;20489;-85
2023/08/03 08:17:57;;;;;;;5.60;2.10;;;17.00;99.90;;;;;;5018901;28;20465;-81
2023/08/03 08:20:24;;;;;;;4.57;2.77;;;17.10;99.90;;;;;;5024536;28;20455;-83
2023/08/03 08:22:51;;;;;;;3.20;2.30;;;17.20;99.90;;;;;;5015722;28;20558;-81
2023/08/03 08:25:18;;;;;;;2.77;2.43;;;17.30;99.90;;;;;;5026121;28;20520;-80
2023/08/03 08:27:44;;;;;;;3.67;2.30;;;17.30;99.90;;;;;;5033867;28;20475;-83
2023/08/03 08:30:13;;;;;;;6.33;2.70;;;17.40;99.90;;;;;;5015012;28;21112;-81
2023/08/03 08:32:39;;;;;;;4.93;3.70;;;17.30;99.90;;;;;;5015455;28;20512;-82
2023/08/03 08:35:07;;;;;;;4.87;2.33;;;17.40;99.90;;;;;;5025606;28;20492;-80
2023/08/03 08:37:34;;;;;;;4.10;2.20;;;17.40;99.90;;;;;;5038812;28;20888;-81
2023/08/03 08:40:00;;;;;;;2.43;1.87;;;17.60;99.90;;;;;;5019689;28;20531;-80
2023/08/03 08:42:27;;;;;;;4.20;1.80;;;17.50;99.90;;;;;;5018812;28;20552;-83
2023/08/03 08:44:54;;;;;;;3.50;2.30;;;17.50;99.90;;;;;;5018860;28;20459;-81
2023/08/03 08:47:22;;;;;;;3.50;2.20;;;17.60;99.90;;;;;;5018644;28;20517;-80
2023/08/03 08:49:49;;;;;;;3.37;2.23;;;17.60;99.90;;;;;;5033699;28;21028;-84
2023/08/03 08:52:17;;;;;;;5.57;2.40;;;17.60;99.90;;;;;;5037995;28;20916;-80
2023/08/03 08:54:44;;;;;;;4.03;2.17;;;17.60;99.90;;;;;;5032162;28;20511;-81
2023/08/03 08:57:11;;;;;;;4.70;1.90;;;17.60;99.90;;;;;;5015628;28;20937;-81
2023/08/03 08:59:39;;;;;;;4.30;1.83;;;17.60;99.90;;;;;;5017317;28;20449;-83
2023/08/03 09:02:06;;;;;;;2.70;1.87;;;17.60;99.90;;;;;;5034564;28;20469;-82
2023/08/03 09:04:35;;;;;;;8.50;1.80;;;17.50;99.90;;;;;;5036107;28;20523;-81
2023/08/03 09:07:02;;;;;;;10.10;2.40;;;17.60;99.90;;;;;;5035752;28;20539;-81
2023/08/03 09:09:32;;;;;;;3.87;2.00;;;17.60;99.90;;;;;;5035625;28;20459;-82
2023/08/03 09:11:59;;;;;;;6.20;2.23;;;17.80;99.90;;;;;;5037258;28;20479;-82
2023/08/03 09:14:25;;;;;;;3.83;1.77;;;17.90;99.90;;;;;;5037279;28;20511;-83
2023/08/03 09:16:52;;;;;;;6.00;2.27;;;18.00;99.90;;;;;;5036602;28;21049;-83
2023/08/03 09:19:39;;;;;;;9.50;2.50;;;18.10;99.90;;;;;;5036863;28;20460;-82
2023/08/03 09:22:06;;;;;;;2.67;1.60;;;18.20;99.90;;;;;;5039724;28;20915;-81
2023/08/03 09:24:33;;;;;;;3.03;1.80;;;18.30;99.90;;;;;;5039537;28;20539;-82
2023/08/03 09:27:00;;;;;;;5.60;2.23;;;18.40;99.90;;;;;;5038137;28;20511;-81
2023/08/03 09:29:31;;;;;;;2.87;1.70;;;18.60;99.90;;;;;;5037993;28;20886;-82
2023/08/03 09:32:06;;;;;;;3.53;1.93;;;18.60;99.90;;;;;;5038440;28;20452;-82
2023/08/03 09:34:39;;;;;;;4.03;2.07;;;18.70;99.90;;;;;;5038660;28;21059;-81
2023/08/03 09:37:07;;;;;;;4.73;1.53;;;18.80;99.90;;;;;;5038262;28;20540;-83
2023/08/03 09:39:36;;;;;;;4.40;1.50;;;18.70;99.90;;;;;;5039445;28;20449;-83
2023/08/03 09:42:04;;;;;;;5.07;1.67;;;18.50;99.90;;;;;;5040111;28;20609;-83
2023/08/03 09:44:31;;;;;;;2.07;1.10;;;18.50;99.90;;;;;;5041101;28;20953;-83
2023/08/03 09:46:58;;;;;;;3.90;1.30;;;18.40;99.90;;;;;;5043039;28;20448;-83
2023/08/03 09:49:26;;;;;;;3.73;1.10;;;18.40;99.90;;;;;;5042172;28;20465;-84
2023/08/03 09:51:57;;;;;;;2.40;1.43;;;18.30;99.90;;;;;;5040715;28;20456;-83
2023/08/03 09:54:28;;;;;;;3.80;1.47;;;18.40;99.90;;;;;;5040280;28;21007;-84
2023/08/03 09:56:59;;;;;;;2.57;1.30;;;18.30;99.90;;;;;;5040017;28;20504;-82
2023/08/03 09:59:29;;;;;;;4.93;1.53;;;18.30;99.90;;;;;;5039249;28;20468;-83
2023/08/03 10:02:00;;;;;;;2.23;1.33;;;18.20;99.90;;;;;;5038304;28;20449;-83
2023/08/03 10:04:29;;;;;;;3.23;1.70;;;18.20;99.90;;;;;;5039098;28;20983;-83
2023/08/03 10:07:03;;;;;;;4.00;1.50;;;18.20;99.90;;;;;;5039112;28;20451;-83
2023/08/03 10:09:38;;;;;;;3.60;1.70;;;18.20;99.90;;;;;;5032140;28;20491;-82
2023/08/03 10:12:10;;;;;;;2.87;1.80;;;18.20;99.90;;;;;;5036736;28;20480;-81
2023/08/03 10:14:42;;;;;;;3.30;1.67;;;18.20;99.90;;;;;;5022953;28;20528;-82
2023/08/03 10:17:11;;;;;;;3.10;2.00;;;18.30;99.90;;;;;;5040558;28;20492;-86
2023/08/03 10:19:39;;;;;;;3.03;1.80;;;18.20;99.90;;;;;;5040860;28;20559;-85
2023/08/03 10:22:08;;;;;;;2.57;1.87;;;18.30;99.90;;;;;;5040866;28;20564;-84
2023/08/03 10:24:35;;;;;;;3.57;1.70;;;18.30;99.90;;;;;;5038903;28;20564;-84
2023/08/03 10:27:18;;;;;;;3.00;1.83;;;18.40;99.90;;;;;;5035807;28;20480;-84
2023/08/03 10:29:56;;;;;;;2.23;1.50;;;18.50;99.90;;;;;;5035390;28;20951;-83
2023/08/03 10:32:25;;;;;;;2.93;1.87;;;18.40;99.90;;;;;;5059784;22;20498;-84
2023/08/03 10:34:56;;;;;;;2.80;1.80;;;18.40;99.90;;;;;;4988445;28;20885;-83
2023/08/03 10:37:24;;;;;;;2.80;1.73;;;18.30;99.90;;;;;;4986073;28;20451;-84
2023/08/03 10:39:53;;;;;;;3.50;1.60;;;18.30;99.90;;;;;;4997675;28;20534;-83
2023/08/03 10:42:25;;;;;;;7.87;2.07;;;18.20;99.90;;;;;;5000496;28;20451;-81
2023/08/03 10:44:52;;;;;;;2.60;1.73;;;18.10;99.90;;;;;;5016937;28;20866;-83
2023/08/03 10:47:28;;;;;;;3.67;1.60;;;18.10;99.90;;;;;;5017475;28;20450;-83
2023/08/03 10:49:56;;;;;;;4.27;2.43;;;18.10;99.90;;;;;;5001302;28;20549;-82
2023/08/03 10:52:34;;;;;;;1.83;1.63;;;18.10;99.90;;;;;;5024843;28;20866;-84
2023/08/03 10:55:20;;;;;;;2.77;1.53;;;18.00;99.90;;;;;;5019115;28;20485;-85
2023/08/03 10:57:47;;;;;;;2.17;1.70;;;18.10;99.90;;;;;;5008534;28;20979;-82
2023/08/03 11:00:14;;;;;;;3.97;1.90;;;18.10;99.90;;;;;;5001675;28;20458;-84
2023/08/03 11:02:43;;;;;;;3.00;2.23;;;18.10;99.90;;;;;;5017997;28;21049;-82
2023/08/03 11:05:11;;;;;;;3.40;1.80;;;18.10;99.90;;;;;;5016392;28;20578;-82
2023/08/03 11:07:41;;;;;;;4.23;2.37;;;18.10;99.90;;;;;;5013304;28;20825;-80
2023/08/03 11:10:10;;;;;;;4.37;2.33;;;18.20;99.90;;;;;;4996529;28;20450;-82
2023/08/03 11:12:37;;;;;;;3.30;2.13;;;18.20;99.90;;;;;;5017111;28;20469;-85
2023/08/03 11:15:06;;;;;;;5.13;2.27;;;18.30;99.90;;;;;;5016660;28;20496;-83
2023/08/03 11:17:34;;;;;;;3.50;2.23;;;18.20;99.90;;;;;;5017847;28;20453;-84
2023/08/03 11:20:03;;;;;;;2.93;2.03;;;18.20;99.90;;;;;;5017003;28;20458;-83
2023/08/03 11:22:30;;;;;;;4.23;2.10;;;18.20;99.90;;;;;;4999630;28;20463;-84
2023/08/03 11:25:00;;;;;;;4.40;2.50;;;18.30;99.90;;;;;;4997535;28;20442;-84
2023/08/03 11:27:27;;;;;;;6.13;2.77;;;18.30;99.90;;;;;;5000108;28;20538;-84
2023/08/03 11:29:56;;;;;;;3.53;2.50;;;18.30;99.90;;;;;;4998270;28;20949;-83
2023/08/03 11:32:24;;;;;;;5.83;3.10;;;18.40;99.90;;;;;;4998564;28;21041;-84
2023/08/03 11:34:56;;;;;;;4.07;2.90;;;18.60;99.90;;;;;;4999712;28;20873;-83
2023/08/03 11:37:23;;;;;;;6.03;2.60;;;18.80;99.90;;;;;;5002043;28;20446;-84
2023/08/03 11:39:50;;;;;;;5.20;2.53;;;18.90;99.90;;;;;;5018632;28;20897;-83
2023/08/03 11:42:18;;;;;;;4.70;2.50;;;19.00;99.90;;;;;;4996779;28;20463;-83
2023/08/03 11:44:46;;;;;;;5.10;3.20;;;19.00;99.90;;;;;;5013912;28;20460;-84
2023/08/03 11:47:13;;;;;;;3.00;2.70;;;19.20;99.90;;;;;;5003852;28;20918;-83
2023/08/03 11:49:40;;;;;;;4.90;2.50;;;19.30;99.90;;;;;;5016942;28;20820;-83
2023/08/03 11:52:07;;;;;;;4.83;2.70;;;19.50;99.90;;;;;;5014311;28;20467;-86
2023/08/03 11:54:34;;;;;;;3.77;2.20;;;19.70;99.90;;;;;;5004119;28;21019;-83
2023/08/03 11:58:07;;;;;;;3.00;2.10;;;19.90;99.90;;;;;;5016014;28;20459;-84
2023/08/03 11:59:50;;;;;;;3.63;2.17;;;20.00;99.90;;;;;;5018190;28;20453;-82
2023/08/03 12:02:17;;;;;;;3.73;2.33;;;20.00;99.90;;;;;;5018290;28;20461;-81
2023/08/03 12:04:52;;;;;;;4.13;2.60;;;19.80;99.90;;;;;;5000165;28;20482;-84
2023/08/03 12:07:21;;;;;;;5.10;2.37;;;19.80;99.90;;;;;;5001517;28;20460;-82
2023/08/03 12:09:51;;;;;;;5.13;2.27;;;19.80;99.90;;;;;;5007511;28;20460;-84
2023/08/03 12:12:18;;;;;;;3.80;2.40;;;19.80;99.90;;;;;;5016627;28;20462;-84
2023/08/03 12:14:45;;;;;;;4.63;2.73;;;19.70;99.90;;;;;;5014507;28;20521;-85
2023/08/03 12:17:13;;;;;;;2.93;2.00;;;19.60;99.90;;;;;;5012203;28;20456;-84
2023/08/03 12:19:40;;;;;;;6.33;2.57;;;19.50;99.90;;;;;;4999545;28;20455;-85
2023/08/03 12:22:06;;;;;;;4.03;2.30;;;19.60;99.90;;;;;;5009003;28;20485;-85
2023/08/03 12:24:34;;;;;;;5.27;2.50;;;19.50;99.90;;;;;;5000375;28;20535;-83
2023/08/03 12:27:01;;;;;;;5.13;2.20;;;19.60;99.90;;;;;;5010423;28;20460;-84
2023/08/03 12:29:28;;;;;;;5.77;2.60;;;19.80;99.90;;;;;;4999750;28;20458;-83
2023/08/03 12:31:55;;;;;;;5.00;2.10;;;20.00;99.90;;;;;;5005581;28;20544;-83
2023/08/03 12:34:23;;;;;;;3.90;1.90;;;20.20;99.90;;;;;;5013617;28;20852;-84
2023/08/03 12:36:50;;;;;;;3.27;2.30;;;20.20;99.90;;;;;;5011130;28;20494;-83
2023/08/03 12:39:18;;;;;;;3.73;1.97;;;20.20;99.90;;;;;;5006597;28;20486;-84
2023/08/03 12:41:45;;;;;;;4.27;2.07;;;20.30;99.90;;;;;;5010038;28;20460;-85
2023/08/03 12:44:12;;;;;;;3.30;1.70;;;20.40;99.90;;;;;;4998421;28;20473;-85
2023/08/03 12:46:39;;;;;;;2.83;1.73;;;20.50;99.90;;;;;;4997437;28;20538;-85
2023/08/03 12:49:06;;;;;;;2.23;1.30;;;20.60;99.90;;;;;;4999255;28;20455;-85